Stow, MA (01775)

10:36 PM EST on December 21, 2014 (GMT -0500)
Gardner Hill Forest | Change Station
CLOSE
Current Station
Personal Weather Station
Location: Stow, MA
Elevation: 243 ft
Nearby Weather Stations

Elev 243 ft 42.42 °N, 71.50 °W | Updated 13 minutes ago

Overcast
Overcast
31.3 °F
Feels Like 31 °F
N
0.0
Wind Variable Wind from ESE

Today
High -- | Low -- °F
--% Chance of Precip.
Yesterday
High -- | Low -- °F
Precip. -- in
7:12 AM 4:16 PM
New Moon, 0% visible
Pressure 30.41 in
Visibility 10.0 miles
Clouds Overcast 5500 ft
Windchill 31 °F
Dew Point 25 °F
Humidity 76%
Rainfall 0.00 in
Snow Depth Not available.
UV 0 out of 12
Pollen .10 out of 12
Air Quality Not available.
Flu Activity Not available.
METAR KBED 220256Z 32003KT 10SM OVC055 M01/M03 A3036 RMK AO2 SLP296 T10061028 53007

More Conditions Fewer Conditions

Pressure 30.41 in
Visibility 10.0 miles
Clouds Overcast 5500 ft
Windchill 31 °F
Dew Point 25 °F
Humidity 76%
Rainfall 0.00 in
Snow Depth Not available.
UV 0 out of 12
Pollen .10 out of 12
Air Quality Not available.
Flu Activity Not available.
METAR KBED 220256Z 32003KT 10SM OVC055 M01/M03 A3036 RMK AO2 SLP296 T10061028 53007

More Conditions Fewer Conditions

10-Day Weather Forecast

Almanac

Astronomy

Dec. 21, 2014 Rise Set
Actual Time
Civil Twilight
Nautical Twilight
Astronomical Twilight
Moon
Length of Visible Light
Length of Day
Tomorrow will be .
, % of the Moon is Illuminated

Today's Extremes

State Highs State Lows

Community

WunderPhotos

Upload Photos

1,779,531 photos uploaded!

WunderBlogs® & News

Nearby

Air Quality

  Air Quality AQ Index Pollutant
Not available.

Snow Depth

Station Depth Elevation

Earthquake Activity

City Distance Mag. Time & Date
Minimum magnitude displayed is 2.5.

Coastal Water Temperatures

Place Temperature

Nearby Weather Stations